Kezdőlap
METAR-TAF:

METAR-TAF

Repülőterek :

Florești, Moldova

földrajzi szélesség: 47-51-45N, földrajzi hosszúság: 028-12-45E, magasság: 101 m

Jelenlegi meteorológiai megfigyelések

A jelentés 20 órával és 3 perccel ezelõtt készült, 10:00 UTC
Délkeleti szél 16 kt, kelet-délkeleti és déli között változik
Hőmérséklet 18°C
Páratartalom 26%
Légköri nyomás 1028 hPa
Látótávolság 10 km, vagy több
Szórványos felhőzet 3200 lábon

METAR: LUBM 231000Z 14016KT 110V180 9999 SCT032 18/M02 Q1028 R25/CLRD65

Idő: 09:03 (06:03 UTC)

Előrejelzés

A jelentés 21 órával és 42 perccel ezelõtt készült, 08:21 UTC
Az előrejelzés 23-én 09 óra UTC és 23-én 18 óra UTC között érvényes
Délkeleti szél 14 kt
Látótávolság 10 km, vagy több
felhőtlen 1500 m magasságban, és nincs gomolyfelhõ

TAF: LUBM 230821Z 2309/2318 14014KT CAVOK

Meteorológiai megfigyelések és előrejelzések több, mint 4000 repülőtéren (METAR és TAF jelentéseket).

A térképen piros és sárga pontok jelzik az elérhető meteorológiai állomásokat.

Mozgassa az egeret a pont fölött, hogy megjelenjen az állomás neve.

Azután kattintson az időjárási megfigyelések és előrejelzések megtekintéséhez.

A térkép megváltoztatása: kattintson a fekete keresztel jelölt zöld gombra ráközelítéshez, a vonallal jelölt zöld gombra távolításhoz, vagy a zöld nyilakra a szomszédos térképek eléréséhez.


METAR-TAF: